createdAt,value
2018-01-04T04:41:11.084Z,9
2018-01-04T04:42:13.310Z,9
2018-01-04T04:43:10.845Z,9
2018-01-04T04:44:11.057Z,9
2018-01-04T04:45:11.361Z,9
2018-01-04T04:46:21.020Z,9
2018-01-04T04:47:10.735Z,9
2018-01-04T04:48:10.955Z,9
2018-01-04T04:49:12.117Z,9
2018-01-04T04:50:10.695Z,9
2018-01-04T04:51:11.026Z,0
2018-01-04T04:52:11.007Z,0
2018-01-04T04:53:13.169Z,0
2018-01-04T04:54:10.756Z,0
2018-01-04T04:55:18.317Z,0
2018-01-04T04:56:11.019Z,0
2018-01-04T04:57:10.763Z,0
2018-01-04T04:58:11.397Z,0
2018-01-04T04:59:10.858Z,0
2018-01-04T05:00:12.139Z,0
2018-01-04T05:01:21.318Z,0
2018-01-04T05:02:12.288Z,0
2018-01-04T05:03:11.988Z,0
2018-01-04T05:04:11.278Z,0
2018-01-04T05:05:11.148Z,0
2018-01-04T05:06:13.740Z,0
2018-01-04T05:07:16.538Z,0
2018-01-04T05:08:14.788Z,0
2018-01-04T05:09:17.530Z,0
2018-01-04T05:10:15.009Z,0
2018-01-04T05:11:12.772Z,0
2018-01-04T05:12:16.907Z,0
2018-01-04T05:13:11.380Z,0
2018-01-04T05:14:12.979Z,0
2018-01-04T05:15:14.724Z,0
2018-01-04T05:16:16.368Z,0
2018-01-04T05:17:15.520Z,0
2018-01-04T05:18:12.551Z,0
2018-01-04T05:19:11.248Z,0
2018-01-04T05:20:16.974Z,0
2018-01-04T05:21:12.074Z,0
2018-01-04T05:22:11.202Z,0
2018-01-04T05:23:11.455Z,0
2018-01-04T05:24:15.868Z,0
2018-01-04T05:25:12.196Z,0
2018-01-04T05:26:18.907Z,0
2018-01-04T05:27:12.781Z,0
2018-01-04T05:28:12.842Z,0
2018-01-04T05:29:13.714Z,0
2018-01-04T05:30:11.062Z,0
2018-01-04T05:31:12.251Z,0
2018-01-04T05:32:13.482Z,0
2018-01-04T05:33:10.951Z,0
2018-01-04T05:34:11.744Z,0
2018-01-04T05:35:10.893Z,0
2018-01-04T05:36:18.911Z,0
2018-01-04T05:37:12.454Z,0
2018-01-04T05:38:15.513Z,0
2018-01-04T05:39:12.216Z,0
2018-01-04T05:40:18.955Z,0
2018-01-04T05:41:12.565Z,0
2018-01-04T05:42:18.841Z,0
2018-01-04T05:43:12.675Z,0
2018-01-04T05:44:11.167Z,0
2018-01-04T05:45:16.196Z,0
2018-01-04T05:46:11.037Z,0
2018-01-04T05:47:10.850Z,0
2018-01-04T05:48:17.744Z,0
2018-01-04T05:49:11.596Z,0
2018-01-04T05:50:12.974Z,0
2018-01-04T05:51:14.047Z,0
2018-01-04T05:52:11.565Z,0
2018-01-04T05:53:11.579Z,0
2018-01-04T05:54:11.996Z,0
2018-01-04T05:55:11.226Z,0
2018-01-04T05:56:11.553Z,0
2018-01-04T05:57:14.040Z,0
2018-01-04T05:58:11.338Z,0
2018-01-04T05:59:11.127Z,0
2018-01-04T06:00:10.896Z,0
2018-01-04T06:01:11.048Z,0
2018-01-04T06:02:11.206Z,0
2018-01-04T06:03:10.923Z,0
2018-01-04T06:04:11.036Z,0
2018-01-04T06:05:10.768Z,0
2018-01-04T06:06:10.778Z,0
2018-01-04T06:07:13.704Z,0
2018-01-04T06:08:10.825Z,0
2018-01-04T06:09:12.109Z,0
2018-01-04T06:10:11.529Z,0
2018-01-04T06:11:13.710Z,0
2018-01-04T06:12:22.939Z,0
2018-01-04T06:13:21.481Z,0
2018-01-04T06:14:11.791Z,0
2018-01-04T06:15:11.330Z,0
2018-01-04T06:16:25.505Z,0
2018-01-04T06:17:11.651Z,0
2018-01-04T06:18:11.049Z,0
2018-01-04T06:19:11.080Z,0
2018-01-04T06:20:18.375Z,0
2018-01-04T06:21:14.861Z,0
2018-01-04T06:22:11.031Z,0
2018-01-04T06:23:15.221Z,0
2018-01-04T06:24:10.982Z,0
2018-01-04T06:25:11.101Z,0
2018-01-04T06:26:14.739Z,0
2018-01-04T06:27:12.090Z,0
2018-01-04T06:28:11.724Z,0
2018-01-04T06:29:11.268Z,0
2018-01-04T06:30:11.063Z,0
2018-01-04T06:31:11.492Z,0
2018-01-04T06:32:11.193Z,0
2018-01-04T06:33:10.833Z,0
2018-01-04T06:34:10.963Z,0
2018-01-04T06:35:11.724Z,0
2018-01-04T06:36:10.964Z,0
2018-01-04T06:37:13.584Z,0
2018-01-04T06:38:14.631Z,0
2018-01-04T06:39:14.087Z,0
2018-01-04T06:40:20.254Z,0
2018-01-04T06:41:11.474Z,0
2018-01-04T06:42:10.995Z,0
2018-01-04T06:43:11.396Z,0
2018-01-04T06:44:12.788Z,0
2018-01-04T06:45:11.356Z,0
2018-01-04T06:46:11.595Z,0
2018-01-04T06:47:11.966Z,0
2018-01-04T06:48:10.865Z,0
2018-01-04T06:49:13.273Z,0
2018-01-04T06:50:11.258Z,0
2018-01-04T06:51:11.286Z,0
2018-01-04T06:52:11.076Z,0
2018-01-04T06:53:14.600Z,0
2018-01-04T06:54:14.328Z,0
2018-01-04T06:55:11.043Z,0
2018-01-04T06:56:10.907Z,0
2018-01-04T06:57:10.927Z,0
2018-01-04T06:58:12.848Z,0
2018-01-04T06:59:10.868Z,0
2018-01-04T07:00:11.068Z,0
2018-01-04T07:01:10.978Z,0
2018-01-04T07:02:10.818Z,0
2018-01-04T07:03:11.890Z,0
2018-01-04T07:04:11.197Z,0
2018-01-04T07:05:12.783Z,0
2018-01-04T07:06:11.297Z,0
2018-01-04T07:07:11.129Z,0
2018-01-04T07:08:11.658Z,0
2018-01-04T07:09:10.838Z,0
2018-01-04T07:10:17.351Z,0
2018-01-04T07:11:12.361Z,0
2018-01-04T07:12:11.657Z,0
2018-01-04T07:13:13.044Z,0
2018-01-04T07:14:10.860Z,0
2018-01-04T07:15:10.870Z,0
2018-01-04T07:16:19.176Z,0
2018-01-04T07:17:13.019Z,0
2018-01-04T07:18:10.914Z,0
2018-01-04T07:19:11.190Z,0
2018-01-04T07:20:25.245Z,0
2018-01-04T07:21:11.148Z,0
2018-01-04T07:22:11.062Z,0
2018-01-04T07:23:11.442Z,0
2018-01-04T07:24:14.156Z,0
2018-01-04T07:25:12.989Z,0
2018-01-04T07:26:11.821Z,0
2018-01-04T07:27:10.869Z,0
2018-01-04T07:28:13.483Z,0
2018-01-04T07:29:11.262Z,0
2018-01-04T07:30:11.083Z,0
2018-01-04T07:31:16.035Z,0
2018-01-04T07:32:11.243Z,0
2018-01-04T07:33:14.044Z,0
2018-01-04T07:34:10.962Z,0
2018-01-04T07:35:11.854Z,0
2018-01-04T07:36:13.607Z,0
2018-01-04T07:37:13.695Z,0
2018-01-04T07:38:10.930Z,0
2018-01-04T07:39:17.854Z,0
2018-01-04T07:40:11.773Z,0
2018-01-04T07:41:11.745Z,0
2018-01-04T07:42:10.844Z,0
2018-01-04T07:43:11.130Z,0
2018-01-04T07:44:12.566Z,0
2018-01-04T07:45:11.409Z,0
2018-01-04T07:46:11.406Z,0
2018-01-04T07:47:11.665Z,0
2018-01-04T07:48:10.866Z,0
2018-01-04T07:49:11.452Z,0
2018-01-04T07:50:12.904Z,0
2018-01-04T07:51:12.046Z,0
2018-01-04T07:52:13.017Z,0
2018-01-04T07:53:10.994Z,0
2018-01-04T07:54:11.047Z,0
2018-01-04T07:55:11.247Z,0
2018-01-04T07:56:10.932Z,0
2018-01-04T07:57:14.438Z,0
2018-01-04T07:58:11.418Z,0
2018-01-04T07:59:19.523Z,0
2018-01-04T08:00:10.959Z,0
2018-01-04T08:01:14.321Z,0
2018-01-04T08:02:10.972Z,0
2018-01-04T08:03:10.888Z,0
2018-01-04T08:04:11.113Z,0
2018-01-04T08:05:10.914Z,0
2018-01-04T08:06:10.949Z,0
2018-01-04T08:07:16.693Z,0
2018-01-04T08:08:11.249Z,0
2018-01-04T08:09:15.890Z,0
2018-01-04T08:10:11.459Z,0
2018-01-04T08:11:11.230Z,0
2018-01-04T08:12:10.952Z,0
2018-01-04T08:13:11.366Z,0
2018-01-04T08:14:11.261Z,0
2018-01-04T08:15:11.040Z,0
2018-01-04T08:16:11.144Z,0
2018-01-04T08:17:11.009Z,0
2018-01-04T08:18:14.172Z,0
2018-01-04T08:19:11.410Z,0
2018-01-04T08:20:11.101Z,0
2018-01-04T08:21:15.678Z,0
2018-01-04T08:22:12.342Z,0
2018-01-04T08:23:11.010Z,0
2018-01-04T08:24:11.072Z,0
2018-01-04T08:25:11.182Z,0
2018-01-04T08:26:13.520Z,0
2018-01-04T08:27:11.883Z,0
2018-01-04T08:28:11.759Z,0
2018-01-04T08:29:25.101Z,0
2018-01-04T08:30:12.377Z,0
2018-01-04T08:31:17.633Z,0
2018-01-04T08:32:14.717Z,0
2018-01-04T08:33:11.376Z,0
2018-01-04T08:34:12.142Z,0
2018-01-04T08:35:16.378Z,0
2018-01-04T08:36:11.216Z,0
2018-01-04T08:37:13.060Z,0
2018-01-04T08:38:19.513Z,0
2018-01-04T08:39:11.225Z,0
2018-01-04T08:40:11.113Z,0
2018-01-04T08:41:11.912Z,0
2018-01-04T08:42:10.955Z,0
2018-01-04T08:43:11.455Z,0
2018-01-04T08:44:13.305Z,0
2018-01-04T08:45:11.024Z,0
2018-01-04T08:46:12.436Z,0
2018-01-04T08:47:12.167Z,0
2018-01-04T08:48:10.936Z,0
2018-01-04T08:49:43.962Z,0
2018-01-04T08:50:11.297Z,0
2018-01-04T08:51:23.819Z,0
2018-01-04T08:52:11.307Z,0
2018-01-04T08:53:20.635Z,0
2018-01-04T08:54:11.067Z,0
2018-01-04T08:55:11.477Z,0
2018-01-04T08:56:13.426Z,0
2018-01-04T08:57:12.057Z,0
2018-01-04T08:58:10.997Z,0
2018-01-04T08:59:11.533Z,0
2018-01-04T09:00:11.814Z,0
2018-01-04T09:01:14.201Z,0
2018-01-04T09:02:13.350Z,0
2018-01-04T09:03:10.959Z,0
2018-01-04T09:04:11.588Z,0
2018-01-04T09:05:11.226Z,0
2018-01-04T09:06:11.273Z,0
2018-01-04T09:07:13.099Z,0
2018-01-04T09:08:11.499Z,0
2018-01-04T09:09:11.166Z,0
2018-01-04T09:10:11.440Z,0
2018-01-04T09:11:19.389Z,0
2018-01-04T09:12:11.101Z,0
2018-01-04T09:13:11.391Z,0
2018-01-04T09:14:11.099Z,0
2018-01-04T09:15:11.297Z,0
2018-01-04T09:16:11.714Z,0
2018-01-04T09:17:11.711Z,0
2018-01-04T09:18:12.712Z,0
2018-01-04T09:20:21.052Z,0
2018-01-04T09:21:22.812Z,0
2018-01-04T09:22:21.052Z,0
2018-01-04T09:23:21.061Z,0
2018-01-04T09:24:21.017Z,0
2018-01-04T09:25:21.067Z,0
2018-01-04T09:26:21.076Z,0
2018-01-04T09:27:21.023Z,0
2018-01-04T09:28:21.061Z,0
2018-01-04T09:29:21.042Z,0
2018-01-04T09:30:21.347Z,0
2018-01-04T09:31:21.054Z,0
2018-01-04T09:32:21.025Z,0
2018-01-04T09:33:21.240Z,0
2018-01-04T09:34:21.036Z,0
2018-01-04T09:35:21.039Z,0
2018-01-04T09:36:21.103Z,0
2018-01-04T09:37:21.034Z,0
2018-01-04T09:38:23.500Z,0
2018-01-04T09:39:21.040Z,0
2018-01-04T09:40:21.070Z,0
2018-01-04T09:41:21.059Z,0
2018-01-04T09:42:21.929Z,0
2018-01-04T09:43:21.063Z,0
2018-01-04T09:44:21.038Z,0
2018-01-04T09:45:21.075Z,0
2018-01-04T09:46:21.101Z,0
2018-01-04T09:47:21.248Z,0
2018-01-04T09:48:21.068Z,0
2018-01-04T09:49:21.039Z,0
2018-01-04T09:50:21.124Z,0
2018-01-04T09:51:21.067Z,0
2018-01-04T09:52:24.662Z,0
2018-01-04T09:53:21.276Z,0
2018-01-04T09:54:21.044Z,0
2018-01-04T09:55:21.052Z,0
2018-01-04T09:56:21.047Z,0
2018-01-04T09:57:21.057Z,0
2018-01-04T09:58:21.753Z,0
2018-01-04T09:59:21.052Z,0
2018-01-04T10:00:21.084Z,0
2018-01-04T10:01:21.061Z,0
2018-01-04T10:02:21.427Z,0
2018-01-04T10:03:21.060Z,0
2018-01-04T10:04:21.065Z,0
2018-01-04T10:05:21.081Z,0
2018-01-04T10:06:21.076Z,0
2018-01-04T10:07:21.070Z,0
2018-01-04T10:08:21.092Z,0
2018-01-04T10:09:22.862Z,0
2018-01-04T10:10:21.109Z,0
2018-01-04T10:11:21.089Z,0
2018-01-04T10:12:21.064Z,0
2018-01-04T10:13:21.064Z,1
2018-01-04T10:14:21.093Z,0
2018-01-04T10:15:21.241Z,5
2018-01-04T10:16:21.068Z,3
2018-01-04T10:17:21.431Z,5
2018-01-04T10:18:21.065Z,1
2018-01-04T10:19:21.081Z,0
2018-01-04T10:20:21.115Z,0
2018-01-04T10:21:21.080Z,0
2018-01-04T10:22:21.283Z,0
2018-01-04T10:23:21.076Z,0
2018-01-04T10:24:21.133Z,0
2018-01-04T10:25:21.378Z,0
2018-01-04T10:26:21.207Z,0
2018-01-04T10:27:21.294Z,0
2018-01-04T10:28:21.114Z,0
2018-01-04T10:29:21.081Z,0
2018-01-04T10:30:21.173Z,0
2018-01-04T10:31:21.099Z,0
2018-01-04T10:32:21.103Z,0
2018-01-04T10:33:21.093Z,0
2018-01-04T10:34:21.090Z,0
2018-01-04T10:35:23.380Z,0
2018-01-04T10:36:21.570Z,0
2018-01-04T10:37:21.198Z,0
2018-01-04T10:38:21.109Z,0
2018-01-04T10:39:21.097Z,0
2018-01-04T10:40:21.135Z,0
2018-01-04T10:41:21.093Z,0
2018-01-04T10:42:21.093Z,0
2018-01-04T10:43:21.142Z,0
2018-01-04T10:44:21.105Z,0
2018-01-04T10:45:21.156Z,0
2018-01-04T10:46:21.130Z,0
2018-01-04T10:47:21.121Z,0
2018-01-04T10:48:21.202Z,0
2018-01-04T10:49:21.116Z,0
2018-01-04T10:50:21.156Z,0
2018-01-04T10:51:21.104Z,0
2018-01-04T10:52:21.111Z,0
2018-01-04T10:53:22.079Z,0
2018-01-04T10:54:21.308Z,0
2018-01-04T10:55:21.142Z,0
2018-01-04T10:56:21.631Z,0
2018-01-04T10:57:21.279Z,0
2018-01-04T10:58:21.110Z,0
2018-01-04T10:59:21.111Z,0
2018-01-04T11:00:21.399Z,0
2018-01-04T11:01:21.110Z,0
2018-01-04T11:02:21.325Z,0
2018-01-04T11:03:21.149Z,0
2018-01-04T11:04:21.115Z,0
2018-01-04T11:05:21.153Z,0
2018-01-04T11:06:21.123Z,0
2018-01-04T11:07:21.127Z,0
2018-01-04T11:08:21.150Z,0
2018-01-04T11:09:21.143Z,0
2018-01-04T11:10:21.271Z,0
2018-01-04T11:11:21.129Z,0
2018-01-04T11:12:21.145Z,0
2018-01-04T11:13:21.420Z,0
2018-01-04T11:14:21.138Z,0
2018-01-04T11:15:21.161Z,0
2018-01-04T11:16:26.582Z,0
2018-01-04T11:17:21.146Z,0
2018-01-04T11:18:21.732Z,0
2018-01-04T11:19:21.131Z,0
2018-01-04T11:20:21.180Z,0
2018-01-04T11:21:21.298Z,0
2018-01-04T11:22:21.133Z,0
2018-01-04T11:23:21.156Z,0
2018-01-04T11:24:21.134Z,0
2018-01-04T11:25:21.153Z,0
2018-01-04T11:26:21.141Z,0
2018-01-04T11:27:21.148Z,0
2018-01-04T11:28:21.629Z,0
2018-01-04T11:29:21.180Z,0
2018-01-04T11:30:21.164Z,0
2018-01-04T11:31:21.137Z,0
2018-01-04T11:32:21.178Z,0
2018-01-04T11:33:21.164Z,0
2018-01-04T11:34:21.170Z,0
2018-01-04T11:35:21.573Z,0
2018-01-04T11:36:21.166Z,0
2018-01-04T11:37:21.152Z,0
2018-01-04T11:38:21.837Z,0
2018-01-04T11:39:21.157Z,0
2018-01-04T11:40:21.150Z,0
2018-01-04T11:41:21.152Z,0
2018-01-04T11:42:21.162Z,0
2018-01-04T11:43:21.157Z,0
2018-01-04T11:44:21.226Z,0
2018-01-04T11:45:21.177Z,0
2018-01-04T11:46:21.187Z,0
2018-01-04T11:47:21.176Z,0
2018-01-04T11:48:21.343Z,0
2018-01-04T11:49:21.173Z,0
2018-01-04T11:50:21.162Z,0
2018-01-04T11:51:21.168Z,1
2018-01-04T11:52:21.293Z,0
2018-01-04T11:53:21.158Z,0
2018-01-04T11:54:21.173Z,0
2018-01-04T11:55:21.165Z,0
2018-01-04T11:56:21.207Z,0
2018-01-04T11:57:21.176Z,0
2018-01-04T11:58:21.325Z,0
2018-01-04T11:59:21.220Z,0
2018-01-04T12:00:21.179Z,0
2018-01-04T12:01:21.166Z,0
2018-01-04T12:02:21.186Z,0
2018-01-04T12:03:21.176Z,0
2018-01-04T12:04:21.169Z,0
2018-01-04T12:05:21.168Z,0
2018-01-04T12:06:21.173Z,0
2018-01-04T12:07:21.185Z,0
2018-01-04T12:08:21.181Z,0
2018-01-04T12:09:21.178Z,0
2018-01-04T12:10:21.183Z,0
2018-01-04T12:11:21.211Z,0
2018-01-04T12:12:21.222Z,0
2018-01-04T12:13:21.577Z,0
2018-01-04T12:14:21.575Z,0
2018-01-04T12:15:21.175Z,0
2018-01-04T12:16:21.207Z,0
2018-01-04T12:17:21.187Z,0
2018-01-04T12:18:21.193Z,0
2018-01-04T12:19:21.198Z,0
2018-01-04T12:20:21.189Z,0
2018-01-04T12:21:21.218Z,0
2018-01-04T12:22:21.184Z,0
2018-01-04T12:23:21.205Z,0
2018-01-04T12:24:21.190Z,0
2018-01-04T12:25:23.175Z,0
2018-01-04T12:26:21.221Z,0
2018-01-04T12:27:21.230Z,0
2018-01-04T12:28:21.356Z,0
2018-01-04T12:29:21.226Z,0
2018-01-04T12:30:21.193Z,0
2018-01-04T12:31:21.216Z,0
2018-01-04T12:32:21.213Z,0
2018-01-04T12:33:21.211Z,0
2018-01-04T12:34:21.203Z,0
2018-01-04T12:35:22.174Z,0
2018-01-04T12:36:21.262Z,0
2018-01-04T12:37:21.225Z,0
2018-01-04T12:38:21.237Z,0
2018-01-04T12:39:21.219Z,0
2018-01-04T12:40:21.207Z,0
2018-01-04T12:41:21.283Z,0
2018-01-04T12:42:21.231Z,0
2018-01-04T12:43:22.538Z,0
2018-01-04T12:44:21.249Z,0
2018-01-04T12:45:21.241Z,0
2018-01-04T12:46:21.297Z,0
2018-01-04T12:47:21.203Z,0
2018-01-04T12:48:21.210Z,0
2018-01-04T12:49:21.216Z,0
2018-01-04T12:50:21.326Z,0
2018-01-04T12:51:21.230Z,0
2018-01-04T12:52:21.227Z,0
2018-01-04T12:53:21.229Z,0
2018-01-04T12:54:21.408Z,0
2018-01-04T12:55:21.217Z,0
2018-01-04T12:56:21.242Z,0
2018-01-04T12:57:21.211Z,0
2018-01-04T12:58:21.304Z,0
2018-01-04T12:59:21.375Z,0
2018-01-04T13:00:21.225Z,0
2018-01-04T13:01:21.279Z,0
2018-01-04T13:02:21.230Z,0
2018-01-04T13:03:21.234Z,0
2018-01-04T13:04:21.219Z,0
2018-01-04T13:05:21.223Z,0
2018-01-04T13:06:22.029Z,0
2018-01-04T13:07:21.235Z,0
2018-01-04T13:08:23.233Z,0
2018-01-04T13:09:21.231Z,0
2018-01-04T13:10:21.871Z,0
2018-01-04T13:11:21.251Z,0
2018-01-04T13:12:21.229Z,0
2018-01-04T13:13:21.230Z,0
2018-01-04T13:14:21.235Z,0
2018-01-04T13:15:21.245Z,0
2018-01-04T13:16:21.258Z,0
2018-01-04T13:17:21.236Z,0
2018-01-04T13:18:21.240Z,0
2018-01-04T13:19:21.408Z,0
2018-01-04T13:20:21.928Z,0
2018-01-04T13:21:21.261Z,0
2018-01-04T13:22:21.250Z,0
2018-01-04T13:23:21.260Z,0
2018-01-04T13:24:21.267Z,0
2018-01-04T13:25:21.240Z,0
2018-01-04T13:26:21.282Z,0
2018-01-04T13:27:21.245Z,0
2018-01-04T13:28:21.271Z,0
2018-01-04T13:29:21.250Z,0
2018-01-04T13:30:21.258Z,0
2018-01-04T13:31:21.266Z,0
2018-01-04T13:32:21.245Z,0
2018-01-04T13:33:23.640Z,0
2018-01-04T13:34:21.265Z,0
2018-01-04T13:35:21.342Z,0
2018-01-04T13:36:21.274Z,0
2018-01-04T13:37:21.265Z,0
2018-01-04T13:38:21.274Z,0
2018-01-04T13:39:21.300Z,0
2018-01-04T13:40:21.272Z,0
2018-01-04T13:41:21.427Z,0
2018-01-04T13:42:21.254Z,0
2018-01-04T13:43:21.259Z,0
2018-01-04T13:44:21.277Z,0
2018-01-04T13:45:21.265Z,0
2018-01-04T13:46:21.283Z,0
2018-01-04T13:47:21.270Z,0
2018-01-04T13:48:21.276Z,0
2018-01-04T13:49:21.358Z,0
2018-01-04T13:50:21.272Z,0
2018-01-04T13:51:21.288Z,0
2018-01-04T13:52:21.272Z,0
2018-01-04T13:53:21.285Z,0
2018-01-04T13:54:21.273Z,0
2018-01-04T13:55:21.289Z,0
2018-01-04T13:56:21.520Z,0
2018-01-04T13:57:21.278Z,0
2018-01-04T13:58:21.480Z,0
2018-01-04T13:59:21.273Z,0
2018-01-04T14:00:21.273Z,0
2018-01-04T14:01:21.271Z,0
2018-01-04T14:02:21.279Z,0
2018-01-04T14:03:21.281Z,0
2018-01-04T14:04:21.354Z,0
2018-01-04T14:05:21.316Z,0
2018-01-04T14:06:21.281Z,0
2018-01-04T14:07:21.288Z,0
2018-01-04T14:08:21.280Z,0
2018-01-04T14:09:21.278Z,0
2018-01-04T14:10:21.322Z,0
2018-01-04T14:11:21.301Z,0
2018-01-04T14:12:21.290Z,0
2018-01-04T14:13:21.297Z,0
2018-01-04T14:14:21.292Z,0
2018-01-04T14:15:21.301Z,0
2018-01-04T14:16:21.305Z,0
2018-01-04T14:17:21.293Z,0
2018-01-04T14:18:21.317Z,0
2018-01-04T14:19:21.327Z,0
2018-01-04T14:20:21.309Z,0
2018-01-04T14:21:21.313Z,0
2018-01-04T14:22:21.950Z,0
2018-01-04T14:23:21.315Z,0
2018-01-04T14:24:21.631Z,0
2018-01-04T14:25:21.300Z,0
2018-01-04T14:26:24.964Z,0
2018-01-04T14:27:31.044Z,0
2018-01-04T14:28:21.361Z,0
2018-01-04T14:29:21.296Z,0
2018-01-04T14:30:21.298Z,0
2018-01-04T14:31:21.314Z,0
2018-01-04T14:32:21.343Z,0
2018-01-04T14:33:21.315Z,0
2018-01-04T14:34:21.303Z,0
2018-01-04T14:35:21.307Z,0
2018-01-04T14:36:21.305Z,0
2018-01-04T14:37:21.326Z,0
2018-01-04T14:38:21.323Z,0
2018-01-04T14:39:21.310Z,0
2018-01-04T14:40:21.320Z,0
2018-01-04T14:41:21.332Z,0
2018-01-04T14:42:21.350Z,0
2018-01-04T14:43:21.311Z,0
2018-01-04T14:44:21.332Z,0
2018-01-04T14:45:21.507Z,0
2018-01-04T14:46:21.326Z,0
2018-01-04T14:47:21.395Z,0
2018-01-04T14:48:21.366Z,0
2018-01-04T14:49:21.317Z,0
2018-01-04T14:50:21.338Z,0
2018-01-04T14:51:21.339Z,0
2018-01-04T14:52:21.855Z,0
2018-01-04T14:53:21.349Z,0
2018-01-04T14:54:21.323Z,0
2018-01-04T14:55:21.326Z,0
2018-01-04T14:56:21.327Z,0
2018-01-04T14:57:21.373Z,0
2018-01-04T14:58:21.327Z,0
2018-01-04T14:59:21.333Z,0
2018-01-04T15:00:21.443Z,0
2018-01-04T15:01:21.344Z,0
2018-01-04T15:02:22.254Z,0
2018-01-04T15:03:21.337Z,0
2018-01-04T15:04:24.852Z,0
2018-01-04T15:05:21.341Z,0
2018-01-04T15:06:21.337Z,0
2018-01-04T15:07:23.308Z,0
2018-01-04T15:08:21.337Z,0
2018-01-04T15:09:21.724Z,0
2018-01-04T15:10:21.943Z,0
2018-01-04T15:11:22.682Z,0
2018-01-04T15:12:21.371Z,0
2018-01-04T15:13:21.342Z,0
2018-01-04T15:14:22.105Z,0
2018-01-04T15:15:21.356Z,0
2018-01-04T15:16:21.347Z,0
2018-01-04T15:17:21.456Z,0
2018-01-04T15:18:21.374Z,0
2018-01-04T15:19:21.372Z,0
2018-01-04T15:20:21.375Z,0
2018-01-04T15:21:21.356Z,0
2018-01-04T15:22:21.382Z,0
2018-01-04T15:23:21.368Z,0
2018-01-04T15:24:21.356Z,0
2018-01-04T15:25:21.365Z,0
2018-01-04T15:26:21.358Z,0
2018-01-04T15:27:21.403Z,0
2018-01-04T15:28:21.372Z,0
2018-01-04T15:29:21.363Z,8
2018-01-04T15:30:21.376Z,3
2018-01-04T15:31:21.373Z,55
2018-01-04T15:32:21.541Z,54
2018-01-04T15:33:21.362Z,55
2018-01-04T15:34:21.368Z,55
2018-01-04T15:35:21.362Z,56
2018-01-04T15:36:21.368Z,56
2018-01-04T15:37:21.395Z,56
2018-01-04T15:38:21.366Z,56
2018-01-04T15:39:21.420Z,55
2018-01-04T15:40:21.368Z,55
2018-01-04T15:41:21.383Z,55
2018-01-04T15:42:21.407Z,55
2018-01-04T15:43:21.398Z,55
2018-01-04T15:44:21.388Z,55
2018-01-04T15:45:21.445Z,55
2018-01-04T15:46:21.368Z,55
2018-01-04T15:47:21.401Z,55
2018-01-04T15:48:21.393Z,55
2018-01-04T15:49:21.397Z,55
2018-01-04T15:50:21.396Z,55
2018-01-04T15:51:21.385Z,55
2018-01-04T15:52:21.675Z,53
2018-01-04T15:53:21.385Z,53
2018-01-04T15:54:23.297Z,15
2018-01-04T15:55:21.396Z,53
2018-01-04T15:56:21.380Z,61
2018-01-04T15:57:22.079Z,61
2018-01-04T15:58:21.587Z,60
2018-01-04T15:59:21.596Z,60
2018-01-04T16:00:21.415Z,60
2018-01-04T16:01:22.683Z,61
2018-01-04T16:02:21.411Z,61
2018-01-04T16:03:21.477Z,61
2018-01-04T16:04:21.399Z,60
2018-01-04T16:05:21.904Z,61
2018-01-04T16:06:21.385Z,61
2018-01-04T16:07:21.425Z,60
2018-01-04T16:08:21.419Z,60
2018-01-04T16:09:21.399Z,62
2018-01-04T16:10:21.401Z,61
2018-01-04T16:11:21.429Z,61
2018-01-04T16:12:22.867Z,61
2018-01-04T16:13:21.397Z,61
2018-01-04T16:14:21.400Z,58
2018-01-04T16:15:21.405Z,60
2018-01-04T16:16:21.401Z,60
2018-01-04T16:17:21.439Z,60
2018-01-04T16:18:21.462Z,62
2018-01-04T16:19:21.413Z,61
2018-01-04T16:20:21.417Z,61
2018-01-04T16:21:21.474Z,61
2018-01-04T16:22:21.446Z,61
2018-01-04T16:23:21.609Z,61
2018-01-04T16:24:21.402Z,60
2018-01-04T16:25:21.414Z,60
2018-01-04T16:26:21.413Z,62
2018-01-04T16:27:21.439Z,61
2018-01-04T16:28:30.080Z,60
2018-01-04T16:29:21.417Z,61
2018-01-04T16:30:22.917Z,61
2018-01-04T16:31:21.431Z,61
2018-01-04T16:32:21.445Z,60
2018-01-04T16:33:21.421Z,55
2018-01-04T16:34:21.424Z,51
2018-01-04T16:35:21.416Z,50
2018-01-04T16:36:21.425Z,54
2018-01-04T16:37:22.218Z,62
2018-01-04T16:38:21.426Z,61
2018-01-04T16:39:21.423Z,61
2018-01-04T16:40:21.426Z,61
2018-01-04T16:41:21.424Z,62
2018-01-04T16:42:21.468Z,61
2018-01-04T16:43:21.477Z,61
2018-01-04T16:44:21.466Z,19
2018-01-04T16:45:21.462Z,62
2018-01-04T16:46:21.482Z,62
2018-01-04T16:47:21.494Z,62
2018-01-04T16:48:21.444Z,62
2018-01-04T16:49:22.010Z,62
2018-01-04T16:50:21.739Z,62
2018-01-04T16:51:21.521Z,62
2018-01-04T16:52:21.450Z,62
2018-01-04T16:53:21.470Z,62
2018-01-04T16:54:21.447Z,62
2018-01-04T16:55:21.516Z,62
2018-01-04T16:56:21.455Z,62
2018-01-04T16:57:23.211Z,62
2018-01-04T16:58:21.441Z,62
2018-01-04T16:59:21.462Z,62
2018-01-04T17:00:21.468Z,61
2018-01-04T17:01:21.472Z,61
2018-01-04T17:02:21.478Z,61
2018-01-04T17:03:21.471Z,61
2018-01-04T17:04:21.452Z,61
2018-01-04T17:05:21.449Z,61
2018-01-04T17:06:21.472Z,61
2018-01-04T17:07:21.587Z,61
2018-01-04T17:08:21.471Z,61
2018-01-04T17:09:21.472Z,61
2018-01-04T17:10:21.509Z,61
2018-01-04T17:11:21.460Z,61
2018-01-04T17:12:21.483Z,61
2018-01-04T17:13:21.465Z,61
2018-01-04T17:14:23.525Z,61
2018-01-04T17:15:21.493Z,61
2018-01-04T17:16:21.496Z,61
2018-01-04T17:17:22.058Z,61
2018-01-04T17:18:21.495Z,61
2018-01-04T17:19:21.462Z,61
2018-01-04T17:20:21.503Z,61
2018-01-04T17:21:21.480Z,61
2018-01-04T17:22:21.485Z,61
2018-01-04T17:23:21.472Z,61
2018-01-04T17:24:21.484Z,60
2018-01-04T17:25:21.469Z,60
2018-01-04T17:26:21.471Z,60
2018-01-04T17:27:23.748Z,60
2018-01-04T17:28:21.518Z,60
2018-01-04T17:29:28.032Z,60
2018-01-04T17:30:21.630Z,60
2018-01-04T17:31:21.484Z,60
2018-01-04T17:32:21.472Z,60
2018-01-04T17:33:21.566Z,60
2018-01-04T17:34:21.475Z,60
2018-01-04T17:35:21.491Z,60
2018-01-04T17:36:21.477Z,60
2018-01-04T17:37:21.495Z,60
2018-01-04T17:38:21.511Z,60
2018-01-04T17:39:21.490Z,60
2018-01-04T17:40:21.565Z,59
2018-01-04T17:41:21.492Z,0
2018-01-04T17:42:21.498Z,0
2018-01-04T17:43:21.507Z,0
2018-01-04T17:44:22.750Z,0
2018-01-04T17:45:21.481Z,0
2018-01-04T17:46:21.477Z,0
2018-01-04T17:47:21.507Z,0
2018-01-04T17:48:23.899Z,0
2018-01-04T17:49:22.110Z,0
2018-01-04T17:50:21.498Z,0
2018-01-04T17:51:21.506Z,0
2018-01-04T17:52:21.503Z,0
2018-01-04T17:53:21.530Z,0
2018-01-04T17:54:24.308Z,0
2018-01-04T17:55:21.500Z,0
2018-01-04T17:56:21.641Z,0
2018-01-04T17:57:21.634Z,0
2018-01-04T17:58:21.528Z,0
2018-01-04T17:59:21.499Z,0
2018-01-04T18:00:21.496Z,0
2018-01-04T18:01:21.542Z,0
2018-01-04T18:02:21.523Z,0
2018-01-04T18:03:21.593Z,0
2018-01-04T18:04:21.528Z,0
2018-01-04T18:05:24.174Z,0
2018-01-04T18:06:21.530Z,0
2018-01-04T18:07:24.347Z,0
2018-01-04T18:08:21.532Z,0
2018-01-04T18:09:21.501Z,0
2018-01-04T18:10:21.594Z,0
2018-01-04T18:11:37.631Z,0
2018-01-04T18:12:21.532Z,0
2018-01-04T18:13:21.792Z,0
2018-01-04T18:14:21.534Z,0
2018-01-04T18:15:23.429Z,0
2018-01-04T18:16:43.328Z,0
2018-01-04T18:17:21.515Z,0
2018-01-04T18:18:21.547Z,0
2018-01-04T18:19:21.532Z,0
2018-01-04T18:20:21.516Z,0
2018-01-04T18:21:21.599Z,0
2018-01-04T18:22:26.327Z,0
2018-01-04T18:23:21.564Z,0
2018-01-04T18:24:21.571Z,0
2018-01-04T18:25:21.933Z,0
2018-01-04T18:26:21.523Z,0
2018-01-04T18:27:21.541Z,0
2018-01-04T18:28:21.557Z,0
2018-01-04T18:29:21.533Z,0
2018-01-04T18:30:21.543Z,0
2018-01-04T18:31:21.542Z,0
2018-01-04T18:32:21.558Z,0
2018-01-04T18:33:21.576Z,0
2018-01-04T18:34:21.555Z,0
2018-01-04T18:35:21.529Z,0
2018-01-04T18:36:21.545Z,0
2018-01-04T18:37:21.539Z,0
2018-01-04T18:38:21.564Z,0
2018-01-04T18:39:21.583Z,0
2018-01-04T18:40:21.538Z,0
2018-01-04T18:41:21.545Z,0
2018-01-04T18:42:23.890Z,0
2018-01-04T18:43:21.570Z,0
2018-01-04T18:44:21.757Z,0
2018-01-04T18:45:21.541Z,0
2018-01-04T18:46:21.566Z,0
2018-01-04T18:47:21.565Z,0
2018-01-04T18:48:21.603Z,0
2018-01-04T18:49:21.552Z,0
2018-01-04T18:50:21.991Z,0
2018-01-04T18:51:21.546Z,0
2018-01-04T18:52:21.561Z,0
2018-01-04T18:53:23.275Z,0
2018-01-04T18:54:21.587Z,0
2018-01-04T18:55:21.566Z,0
2018-01-04T18:56:21.620Z,0
2018-01-04T18:57:21.559Z,0
2018-01-04T18:58:21.574Z,0
2018-01-04T18:59:28.959Z,0
2018-01-04T19:00:21.556Z,0
2018-01-04T19:01:21.550Z,0
2018-01-04T19:02:21.628Z,0
2018-01-04T19:03:23.465Z,0
2018-01-04T19:04:21.563Z,0
2018-01-04T19:05:22.316Z,0
2018-01-04T19:06:24.629Z,0
2018-01-04T19:07:24.863Z,0
2018-01-04T19:08:22.767Z,0
2018-01-04T19:09:21.656Z,0
2018-01-04T19:10:21.561Z,0
2018-01-04T19:11:21.557Z,0
2018-01-04T19:12:21.565Z,0
2018-01-04T19:13:21.602Z,0
2018-01-04T19:14:21.592Z,0
2018-01-04T19:15:21.564Z,0
2018-01-04T19:16:21.570Z,0
2018-01-04T19:17:21.584Z,0
2018-01-04T19:18:21.625Z,0
2018-01-04T19:19:21.593Z,0
2018-01-04T19:20:21.594Z,0
2018-01-04T19:21:21.578Z,0
2018-01-04T19:22:21.570Z,0
2018-01-04T19:23:21.596Z,0
2018-01-04T19:24:21.591Z,0